Time;durP1;ratioP1;P1;durP2;ratioP2;P2;SDS_P1;SDS_P2;PMS_P1;PMS_P2;Temp;Humidity;BMP_temperature;BMP_pressure;BME280_temperature;BME280_humidity;BME280_pressure;Samples;Min_cycle;Max_cycle;Signal;HPM_P1;HPM_P2
2021/08/19 00:02:12;;;;;;;2.15;1.95;;;;;;;17.93;61.50;100298.44;4902804;28;127460;-64
2021/08/19 00:04:39;;;;;;;2.30;1.95;;;;;;;17.94;61.45;100299.25;4904941;28;113450;-72
2021/08/19 00:07:05;;;;;;;2.13;1.60;;;;;;;17.96;61.44;100299.72;4920709;28;105811;-63
2021/08/19 00:09:32;;;;;;;2.40;1.77;;;;;;;17.95;61.46;100306.28;4900799;28;97983;-63
2021/08/19 00:12:00;;;;;;;1.70;1.33;;;;;;;17.96;61.52;100302.44;4918430;28;112086;-63
2021/08/19 00:14:26;;;;;;;2.88;1.48;;;;;;;17.95;61.47;100303.56;4919501;28;97801;-72
2021/08/19 00:16:52;;;;;;;1.83;1.10;;;;;;;17.96;61.63;100305.16;4918492;28;127925;-72
2021/08/19 00:19:18;;;;;;;1.73;1.50;;;;;;;17.96;61.77;100302.44;4922235;28;97978;-63
2021/08/19 00:21:44;;;;;;;1.60;1.30;;;;;;;17.96;61.79;100294.25;4909254;28;126070;-72
2021/08/19 00:24:10;;;;;;;1.38;1.23;;;;;;;17.95;61.88;100298.13;4902440;28;121333;-72
2021/08/19 00:26:37;;;;;;;1.90;1.30;;;;;;;17.96;61.73;100305.16;4898354;28;126387;-63
2021/08/19 00:29:03;;;;;;;1.48;1.15;;;;;;;17.95;61.85;100296.19;4902842;28;97806;-63
2021/08/19 00:31:29;;;;;;;1.45;1.00;;;;;;;17.95;61.97;100300.84;4918032;28;126191;-63
2021/08/19 00:33:55;;;;;;;1.65;0.88;;;;;;;17.95;61.97;100292.66;4921666;28;111278;-72
2021/08/19 00:36:21;;;;;;;1.25;1.05;;;;;;;17.96;62.12;100291.53;4921761;28;98097;-64
2021/08/19 00:38:47;;;;;;;2.55;1.27;;;;;;;17.96;62.17;100291.53;4910524;28;117866;-63
2021/08/19 00:41:15;;;;;;;1.45;0.90;;;;;;;17.94;62.04;100291.88;4899770;28;112601;-72
2021/08/19 00:43:41;;;;;;;1.95;0.90;;;;;;;17.95;62.19;100289.94;4900350;28;127667;-72
2021/08/19 00:46:33;;;;;;;1.40;0.95;;;;;;;17.90;61.96;100288.97;4899007;28;126344;-63
2021/08/19 00:49:12;;;;;;;1.43;0.80;;;;;;;17.89;61.94;100290.09;4914245;28;109315;-64
2021/08/19 00:51:39;;;;;;;1.52;0.82;;;;;;;17.93;62.29;100286.75;4922489;28;98178;-72
2021/08/19 00:54:08;;;;;;;1.20;0.93;;;;;;;17.91;62.27;100287.84;4918999;28;115559;-72
2021/08/19 00:56:35;;;;;;;1.98;0.80;;;;;;;17.91;62.46;100289.78;4919503;28;115850;-63
2021/08/19 00:59:03;;;;;;;2.47;0.85;;;;;;;17.93;62.38;100292.19;4921328;28;97856;-72
2021/08/19 01:01:29;;;;;;;1.15;0.70;;;;;;;17.91;62.54;100285.13;4899518;28;98630;-72
2021/08/19 01:03:56;;;;;;;2.30;0.90;;;;;;;17.91;62.55;100296.03;4899500;28;98716;-71
2021/08/19 01:06:22;;;;;;;1.77;0.88;;;;;;;17.92;62.54;100291.41;4909694;28;98369;-67
2021/08/19 01:08:48;;;;;;;2.13;0.70;;;;;;;17.91;62.90;100290.56;4921397;28;97759;-72
2021/08/19 01:11:15;;;;;;;2.00;0.70;;;;;;;17.92;62.79;100288.66;4918363;28;116985;-64
2021/08/19 01:13:41;;;;;;;1.40;1.00;;;;;;;17.92;62.66;100294.13;4918177;28;98472;-72
2021/08/19 01:16:07;;;;;;;1.23;0.88;;;;;;;17.92;62.81;100299.56;4903402;28;127953;-63
2021/08/19 01:18:41;;;;;;;1.30;0.90;;;;;;;17.90;62.62;100296.34;4904135;28;119150;-72
2021/08/19 01:21:10;;;;;;;2.03;0.80;;;;;;;17.91;62.54;100298.75;4903401;28;98325;-72
2021/08/19 01:23:37;;;;;;;0.98;0.75;;;;;;;17.91;62.87;100298.75;4905613;28;98412;-64
2021/08/19 01:26:07;;;;;;;1.42;0.73;;;;;;;17.89;62.87;100295.56;4905121;28;98381;-64
2021/08/19 01:28:35;;;;;;;1.23;0.80;;;;;;;17.88;62.87;100302.13;4903243;28;98054;-64
2021/08/19 01:31:01;;;;;;;3.70;1.20;;;;;;;17.90;62.85;100305.34;4904513;28;110301;-72
2021/08/19 01:33:28;;;;;;;1.15;0.80;;;;;;;17.90;62.80;100302.59;4904629;28;97902;-64
2021/08/19 01:35:54;;;;;;;1.98;0.98;;;;;;;17.91;62.93;100298.75;4909302;28;98041;-64
2021/08/19 01:38:31;;;;;;;1.50;0.93;;;;;;;17.88;62.59;100298.59;4923232;28;117758;-64
2021/08/19 01:40:58;;;;;;;1.63;1.20;;;;;;;17.91;62.81;100297.94;4919479;28;98437;-72
2021/08/19 01:43:27;;;;;;;1.30;1.20;;;;;;;17.88;62.75;100296.69;4910360;28;98381;-72
2021/08/19 01:45:56;;;;;;;2.65;1.35;;;;;;;17.88;62.64;100295.84;4903999;28;97803;-64
2021/08/19 01:48:22;;;;;;;1.83;1.08;;;;;;;17.89;62.76;100294.75;4904552;28;97843;-64
2021/08/19 01:50:48;;;;;;;1.80;1.23;;;;;;;17.90;62.83;100296.34;4914839;28;98510;-63
2021/08/19 01:53:14;;;;;;;3.78;1.27;;;;;;;17.90;62.52;100307.25;4905898;28;126927;-64
2021/08/19 01:55:40;;;;;;;1.70;1.30;;;;;;;17.91;63.01;100296.03;4904223;28;97874;-64
2021/08/19 01:58:07;;;;;;;1.88;1.23;;;;;;;17.89;62.63;100298.28;4905076;28;98000;-64
2021/08/19 02:00:33;;;;;;;1.92;1.58;;;;;;;17.90;62.65;100291.69;4904567;28;98222;-64
2021/08/19 02:03:03;;;;;;;2.45;1.52;;;;;;;17.87;62.64;100295.06;4902583;28;127417;-71
2021/08/19 02:05:30;;;;;;;1.70;1.40;;;;;;;17.87;62.59;100300.50;4904764;28;98096;-64
2021/08/19 02:07:56;;;;;;;2.22;1.73;;;;;;;17.86;62.67;100296.19;4902413;28;98814;-72
2021/08/19 02:10:22;;;;;;;3.42;1.40;;;;;;;17.85;62.82;100286.41;4903855;28;98388;-64
2021/08/19 02:12:48;;;;;;;2.28;1.52;;;;;;;17.85;62.60;100289.13;4886278;28;102258;-64
2021/08/19 02:15:14;;;;;;;2.38;1.70;;;;;;;17.84;62.60;100287.53;4912757;28;127010;-64
2021/08/19 02:17:40;;;;;;;3.05;1.50;;;;;;;17.81;62.68;100280.00;4923789;28;105070;-64
2021/08/19 02:20:07;;;;;;;2.55;1.60;;;;;;;17.80;62.71;100283.03;4916875;28;126109;-72
2021/08/19 02:22:33;;;;;;;2.10;1.77;;;;;;;17.79;62.82;100276.78;4922371;28;116660;-64
2021/08/19 02:24:59;;;;;;;2.13;1.70;;;;;;;17.83;62.95;100279.66;4920391;28;127576;-64
2021/08/19 02:27:26;;;;;;;2.80;1.40;;;;;;;17.88;62.73;100282.22;4922127;28;117645;-64
2021/08/19 02:29:52;;;;;;;2.08;1.40;;;;;;;17.95;62.71;100279.03;4922342;28;98047;-72
2021/08/19 02:32:19;;;;;;;1.80;1.55;;;;;;;17.98;62.58;100271.00;4884631;28;127402;-63
2021/08/19 02:34:45;;;;;;;3.25;1.80;;;;;;;18.00;62.65;100282.41;4917406;28;97921;-64
2021/08/19 02:37:11;;;;;;;2.22;1.92;;;;;;;18.03;62.42;100280.94;4921049;28;109513;-64
2021/08/19 02:39:37;;;;;;;2.70;2.13;;;;;;;18.07;62.29;100279.19;4917013;28;123596;-64
2021/08/19 02:42:04;;;;;;;2.60;2.40;;;;;;;18.07;62.28;100271.00;4902443;28;128033;-72
2021/08/19 02:44:30;;;;;;;2.53;2.20;;;;;;;18.10;62.02;100270.38;4903351;28;99215;-64
2021/08/19 02:46:56;;;;;;;3.63;2.50;;;;;;;18.12;61.96;100273.59;4905203;28;116446;-64
2021/08/19 02:49:23;;;;;;;2.50;2.13;;;;;;;18.14;61.82;100263.13;4920729;28;127326;-64
2021/08/19 02:51:49;;;;;;;2.65;2.40;;;;;;;18.13;61.81;100267.78;4903972;28;120398;-64
2021/08/19 02:54:15;;;;;;;2.38;2.17;;;;;;;18.14;61.87;100271.31;4916266;28;126648;-64
2021/08/19 02:56:41;;;;;;;3.78;2.25;;;;;;;18.14;61.81;100263.13;4900679;28;117181;-64
2021/08/19 02:59:07;;;;;;;2.67;2.47;;;;;;;18.15;61.92;100267.47;4885501;28;123118;-72
2021/08/19 03:01:33;;;;;;;2.50;2.30;;;;;;;18.15;61.74;100268.25;4920593;28;98702;-64
2021/08/19 03:03:59;;;;;;;3.03;2.63;;;;;;;18.15;61.87;100271.00;4921821;28;127543;-64
2021/08/19 03:06:25;;;;;;;3.47;2.95;;;;;;;18.15;61.73;100270.19;4922108;28;118185;-64
2021/08/19 03:08:51;;;;;;;2.92;2.63;;;;;;;18.13;61.63;100275.19;4921050;28;102000;-64
2021/08/19 03:11:17;;;;;;;3.33;2.95;;;;;;;18.13;61.64;100270.53;4920852;28;126450;-64
2021/08/19 03:13:43;;;;;;;3.33;2.53;;;;;;;18.11;61.67;100261.06;4921892;28;99421;-72
2021/08/19 03:16:09;;;;;;;4.00;3.08;;;;;;;18.11;61.88;100261.84;4908283;28;97749;-72
2021/08/19 03:18:36;;;;;;;3.17;2.88;;;;;;;18.09;61.69;100264.09;4899797;28;127986;-72
2021/08/19 03:21:03;;;;;;;4.40;3.03;;;;;;;18.09;61.71;100260.59;4898144;28;98225;-72
2021/08/19 03:23:29;;;;;;;3.47;3.17;;;;;;;18.08;61.58;100262.50;4902294;28;126172;-72
2021/08/19 03:25:55;;;;;;;3.88;3.40;;;;;;;18.08;61.79;100262.50;4918877;28;98021;-64
2021/08/19 03:28:23;;;;;;;3.53;3.22;;;;;;;18.09;61.71;100263.31;4901632;28;98437;-64
2021/08/19 03:30:50;;;;;;;3.70;3.40;;;;;;;18.08;61.84;100259.78;4901428;28;98648;-72
2021/08/19 03:33:17;;;;;;;3.42;3.13;;;;;;;18.07;61.65;100265.53;4903338;28;98039;-64
2021/08/19 03:35:45;;;;;;;3.70;3.40;;;;;;;18.05;61.62;100271.34;4903364;28;98006;-72
2021/08/19 03:38:11;;;;;;;3.45;3.15;;;;;;;18.05;61.71;100263.16;4900642;28;104534;-64
2021/08/19 03:40:37;;;;;;;3.60;3.30;;;;;;;18.04;61.65;100264.28;4902543;28;97872;-64
2021/08/19 03:43:03;;;;;;;3.55;3.25;;;;;;;18.05;61.80;100276.00;4908837;28;98242;-72
2021/08/19 03:45:30;;;;;;;4.05;3.30;;;;;;;18.04;61.83;100271.66;4921946;28;97808;-64
2021/08/19 03:47:56;;;;;;;4.57;3.40;;;;;;;18.04;61.59;100275.19;4922560;28;98866;-64
2021/08/19 03:50:22;;;;;;;3.80;3.40;;;;;;;18.01;61.69;100278.56;4919340;28;99045;-72
2021/08/19 03:52:49;;;;;;;4.57;3.78;;;;;;;18.02;61.93;100276.63;4920396;28;97773;-64
2021/08/19 03:55:15;;;;;;;4.38;3.80;;;;;;;18.00;61.75;100276.97;4921332;28;97626;-63
2021/08/19 03:57:41;;;;;;;4.93;4.43;;;;;;;18.00;61.75;100271.50;4921148;28;111817;-64
2021/08/19 04:00:08;;;;;;;5.70;4.28;;;;;;;17.97;61.77;100269.41;4915419;28;126681;-64
2021/08/19 04:02:34;;;;;;;5.03;4.03;;;;;;;17.96;61.67;100277.91;4912846;28;98014;-72
2021/08/19 04:05:00;;;;;;;4.68;4.28;;;;;;;17.94;62.43;100270.06;4919253;28;118101;-72
2021/08/19 04:07:26;;;;;;;4.57;4.07;;;;;;;17.95;61.84;100276.31;4898745;28;129777;-72
2021/08/19 04:09:52;;;;;;;4.70;4.30;;;;;;;17.94;61.92;100272.78;4899798;28;125743;-72
2021/08/19 04:12:19;;;;;;;4.90;4.40;;;;;;;17.92;61.81;100275.03;4901664;28;125868;-64
2021/08/19 04:14:45;;;;;;;4.72;4.15;;;;;;;17.93;62.00;100279.38;4901209;28;104835;-64
2021/08/19 04:17:11;;;;;;;5.00;4.50;;;;;;;17.93;61.68;100276.63;4902579;28;99036;-72
2021/08/19 04:19:38;;;;;;;4.40;4.00;;;;;;;17.92;61.66;100272.31;4901752;28;99058;-71
2021/08/19 04:22:04;;;;;;;5.60;4.47;;;;;;;17.93;61.64;100275.84;4911774;28;99519;-63
2021/08/19 04:24:30;;;;;;;5.00;4.57;;;;;;;17.93;61.61;100278.56;4921369;28;98828;-64
2021/08/19 04:26:56;;;;;;;4.63;4.18;;;;;;;17.94;61.55;100282.88;4920311;28;127293;-72
2021/08/19 04:29:22;;;;;;;4.55;4.07;;;;;;;17.95;61.58;100285.28;4918948;28;127721;-64
2021/08/19 04:31:48;;;;;;;4.80;4.30;;;;;;;17.95;61.53;100282.56;4921140;28;98149;-72
2021/08/19 04:34:14;;;;;;;5.00;4.50;;;;;;;17.96;61.09;100284.19;4918891;28;118904;-71
2021/08/19 04:36:40;;;;;;;4.93;4.43;;;;;;;17.95;61.55;100287.22;4919945;28;126642;-63
2021/08/19 04:39:06;;;;;;;5.05;4.47;;;;;;;17.96;61.47;100283.34;4907362;28;127977;-71
2021/08/19 04:41:32;;;;;;;5.22;4.78;;;;;;;17.95;61.50;100292.66;4896796;28;126123;-71
2021/08/19 04:43:58;;;;;;;6.38;4.15;;;;;;;17.94;61.60;100291.06;4899314;28;103354;-72
2021/08/19 04:46:24;;;;;;;4.50;4.07;;;;;;;17.95;61.73;100285.28;4897342;28;98798;-71
2021/08/19 04:48:50;;;;;;;4.78;4.18;;;;;;;17.96;61.52;100289.63;4881106;28;116890;-64
2021/08/19 04:51:18;;;;;;;4.75;4.30;;;;;;;17.96;61.45;100277.91;4898942;28;125369;-72
2021/08/19 04:53:44;;;;;;;4.32;3.92;;;;;;;17.97;61.75;100282.25;4899192;28;98326;-72
2021/08/19 04:56:10;;;;;;;4.63;3.92;;;;;;;17.97;61.59;100284.97;4879658;28;128445;-63
2021/08/19 04:58:37;;;;;;;5.68;3.70;;;;;;;17.96;61.61;100292.34;4897797;28;99646;-71
2021/08/19 05:01:03;;;;;;;6.45;3.90;;;;;;;17.97;61.90;100287.69;4901322;28;98043;-63
2021/08/19 05:03:29;;;;;;;4.78;3.97;;;;;;;17.98;61.59;100294.75;4863223;28;116341;-71
2021/08/19 05:05:55;;;;;;;3.80;3.38;;;;;;;18.01;61.34;100294.13;4896589;28;127980;-71
2021/08/19 05:08:22;;;;;;;4.00;3.60;;;;;;;18.04;61.42;100288.03;4898118;28;128634;-63
2021/08/19 05:10:48;;;;;;;4.13;3.75;;;;;;;18.05;61.43;100295.88;4881802;28;98245;-64
2021/08/19 05:13:14;;;;;;;4.18;3.78;;;;;;;18.08;61.41;100300.69;4902560;28;97836;-71
2021/08/19 05:15:40;;;;;;;4.55;3.85;;;;;;;18.10;61.43;100284.78;4900338;28;128120;-71
2021/08/19 05:18:06;;;;;;;4.20;3.60;;;;;;;18.14;61.32;100302.13;4898491;28;126284;-63
2021/08/19 05:20:32;;;;;;;4.22;3.80;;;;;;;18.16;61.29;100296.38;4899085;28;97975;-64
2021/08/19 05:22:58;;;;;;;3.40;3.10;;;;;;;18.21;61.19;100304.38;4901553;28;97993;-63
2021/08/19 05:25:24;;;;;;;3.53;3.15;;;;;;;18.25;61.02;100301.81;4900314;28;127380;-71
2021/08/19 05:27:50;;;;;;;3.40;3.10;;;;;;;18.27;60.91;100303.06;4899817;28;98385;-71
2021/08/19 05:30:17;;;;;;;3.65;3.17;;;;;;;18.30;61.01;100299.69;4901628;28;97830;-72
2021/08/19 05:32:43;;;;;;;3.35;3.05;;;;;;;18.30;60.95;100302.44;4901541;28;97927;-72
2021/08/19 05:35:09;;;;;;;3.78;3.38;;;;;;;18.31;60.93;100306.78;4901212;28;103424;-64
2021/08/19 05:37:35;;;;;;;4.90;3.22;;;;;;;18.32;60.84;100308.38;4901420;28;113900;-64
2021/08/19 05:40:02;;;;;;;3.35;3.05;;;;;;;18.32;61.17;100315.75;4906277;28;97865;-64
2021/08/19 05:42:28;;;;;;;3.35;2.80;;;;;;;18.33;60.82;100318.16;4908965;28;103020;-64
2021/08/19 05:44:54;;;;;;;3.33;2.70;;;;;;;18.35;61.09;100317.81;4901038;28;98774;-64
2021/08/19 05:47:20;;;;;;;3.20;2.85;;;;;;;18.35;61.00;100313.19;4900619;28;126914;-72
2021/08/19 05:49:46;;;;;;;2.80;2.60;;;;;;;18.38;60.81;100311.72;4900002;28;127367;-64
2021/08/19 05:52:12;;;;;;;3.78;2.95;;;;;;;18.39;60.73;100316.88;4902055;28;113255;-63
2021/08/19 05:54:39;;;;;;;4.63;3.15;;;;;;;18.42;60.76;100314.63;4900838;28;98296;-72
2021/08/19 05:57:05;;;;;;;3.97;3.08;;;;;;;18.42;60.83;100322.81;4900929;28;115563;-63
2021/08/19 05:59:31;;;;;;;4.13;2.97;;;;;;;18.43;60.74;100314.31;4900740;28;105768;-72
2021/08/19 06:01:57;;;;;;;3.88;2.70;;;;;;;18.44;60.73;100321.38;4902894;28;104914;-63
2021/08/19 06:04:23;;;;;;;3.40;3.10;;;;;;;18.46;61.03;100324.56;4907082;28;117325;-64
2021/08/19 06:06:49;;;;;;;3.58;2.85;;;;;;;18.48;60.70;100326.97;4913032;28;98354;-72
2021/08/19 06:09:15;;;;;;;4.32;2.95;;;;;;;18.50;60.55;100325.50;4919818;28;127189;-72
2021/08/19 06:11:41;;;;;;;3.47;2.60;;;;;;;18.53;60.67;100335.00;4905122;28;98075;-72
2021/08/19 06:14:08;;;;;;;3.30;2.70;;;;;;;18.56;60.86;100334.34;4904758;28;126626;-72
2021/08/19 06:16:34;;;;;;;3.92;3.10;;;;;;;18.58;60.57;100326.63;4901386;28;127958;-64
2021/08/19 06:19:00;;;;;;;2.80;2.42;;;;;;;18.57;60.69;100331.28;4884499;28;127492;-64
2021/08/19 06:21:27;;;;;;;4.18;3.17;;;;;;;18.58;60.61;100335.59;4904842;28;97915;-64
2021/08/19 06:23:53;;;;;;;4.55;2.72;;;;;;;18.59;60.65;100329.03;4886834;28;98170;-72
2021/08/19 06:26:19;;;;;;;2.85;2.65;;;;;;;18.63;60.47;100335.47;4885393;28;115006;-72
2021/08/19 06:28:45;;;;;;;3.05;2.70;;;;;;;18.68;60.39;100331.75;4901772;28;110459;-72
2021/08/19 06:31:11;;;;;;;3.90;2.80;;;;;;;18.79;60.46;100337.72;4902794;28;118846;-72
2021/08/19 06:33:37;;;;;;;3.00;2.63;;;;;;;18.92;59.80;100339.41;4886010;28;126960;-72
2021/08/19 06:36:07;;;;;;;2.90;2.60;;;;;;;19.05;59.55;100343.06;4921851;28;98202;-72
2021/08/19 06:38:33;;;;;;;2.95;2.60;;;;;;;19.20;59.59;100334.34;4905862;28;98338;-64
2021/08/19 06:40:59;;;;;;;4.03;2.45;;;;;;;19.35;59.26;100338.44;4913154;28;116961;-72
2021/08/19 06:43:25;;;;;;;2.95;2.53;;;;;;;19.40;59.26;100340.19;4920426;28;128015;-63
2021/08/19 06:45:51;;;;;;;3.15;2.70;;;;;;;19.36;59.22;100342.78;4922792;28;98425;-63
2021/08/19 06:48:17;;;;;;;3.72;2.50;;;;;;;19.31;59.32;100342.97;4922540;28;98210;-72
2021/08/19 06:50:43;;;;;;;3.25;2.53;;;;;;;19.26;59.20;100338.50;4920861;28;112888;-64
2021/08/19 06:53:09;;;;;;;3.25;2.67;;;;;;;19.27;59.47;100345.56;4921896;28;127770;-72
2021/08/19 06:55:35;;;;;;;3.05;2.50;;;;;;;19.34;59.46;100339.59;4923028;28;98268;-72
2021/08/19 06:58:01;;;;;;;4.85;3.20;;;;;;;19.37;58.89;100339.75;4919701;28;127281;-72
2021/08/19 07:00:27;;;;;;;4.47;2.67;;;;;;;19.42;58.78;100340.69;4921532;28;98732;-72
2021/08/19 07:02:53;;;;;;;3.17;2.88;;;;;;;19.51;58.72;100330.50;4921140;28;128726;-64
2021/08/19 07:05:20;;;;;;;3.25;2.85;;;;;;;19.59;58.09;100337.84;4913532;28;128635;-64
2021/08/19 07:07:46;;;;;;;3.58;2.85;;;;;;;19.66;57.81;100332.69;4901601;28;97929;-63
2021/08/19 07:10:12;;;;;;;3.88;2.78;;;;;;;19.73;58.31;100334.88;4905074;28;97734;-72
2021/08/19 07:12:38;;;;;;;3.20;2.90;;;;;;;19.77;57.90;100330.38;4902308;28;127894;-63
2021/08/19 07:15:06;;;;;;;4.35;3.00;;;;;;;19.81;57.73;100336.78;4885018;28;111241;-72
2021/08/19 07:17:32;;;;;;;3.72;3.33;;;;;;;19.84;57.47;100339.63;4903107;28;98029;-72
2021/08/19 07:19:58;;;;;;;4.15;3.55;;;;;;;19.81;57.29;100334.84;4903270;28;115635;-64
2021/08/19 07:22:25;;;;;;;4.82;3.50;;;;;;;19.80;57.15;100340.63;4883758;28;126831;-64
2021/08/19 07:24:51;;;;;;;5.53;3.72;;;;;;;19.82;57.00;100341.91;4900743;28;99048;-72
2021/08/19 07:27:17;;;;;;;3.75;3.45;;;;;;;19.82;57.27;100347.38;4903112;28;98166;-65
2021/08/19 07:29:43;;;;;;;4.00;3.47;;;;;;;19.88;57.25;100347.97;4902286;28;117793;-72
2021/08/19 07:32:09;;;;;;;3.70;3.40;;;;;;;20.04;57.09;100351.72;4901676;28;129014;-64
2021/08/19 07:34:36;;;;;;;3.75;3.45;;;;;;;20.24;56.59;100344.66;4920709;28;100554;-72
2021/08/19 07:37:02;;;;;;;4.13;3.22;;;;;;;20.44;56.25;100351.22;4922496;28;97841;-71
2021/08/19 07:39:28;;;;;;;4.60;3.63;;;;;;;20.55;55.99;100349.72;4921897;28;97963;-71
2021/08/19 07:41:54;;;;;;;5.35;3.58;;;;;;;20.66;55.84;100349.28;4903520;28;98471;-70
2021/08/19 07:44:20;;;;;;;4.25;3.38;;;;;;;20.72;55.58;100359.69;4921628;28;98390;-65
2021/08/19 07:46:46;;;;;;;5.38;4.20;;;;;;;20.69;55.42;100351.34;4920548;28;127760;-69
2021/08/19 07:49:15;;;;;;;4.03;3.60;;;;;;;20.56;55.86;100359.53;4903158;28;118181;-72
2021/08/19 07:51:41;;;;;;;4.20;3.70;;;;;;;20.43;56.06;100351.56;4909709;28;98273;-72
2021/08/19 07:54:07;;;;;;;3.67;3.38;;;;;;;20.34;56.61;100351.63;4902556;28;128102;-64
2021/08/19 07:56:33;;;;;;;4.53;3.75;;;;;;;20.28;56.23;100342.84;4901183;28;125940;-71
2021/08/19 07:58:59;;;;;;;6.43;3.83;;;;;;;20.26;56.54;100344.31;4900676;28;116644;-64
2021/08/19 08:01:26;;;;;;;5.30;4.00;;;;;;;20.33;56.56;100350.03;4878446;28;100398;-64
2021/08/19 08:03:52;;;;;;;4.82;3.88;;;;;;;20.40;56.07;100353.03;4919370;28;124109;-64
2021/08/19 08:06:18;;;;;;;4.30;3.50;;;;;;;20.43;56.16;100354.28;4918629;28;127279;-64
2021/08/19 08:08:45;;;;;;;4.55;3.72;;;;;;;20.45;56.32;100361.03;4904101;28;97964;-71
2021/08/19 08:11:11;;;;;;;6.95;4.00;;;;;;;20.44;55.90;100367.66;4921540;28;98229;-71
2021/08/19 08:13:37;;;;;;;4.15;3.70;;;;;;;20.39;56.20;100370.56;4905549;28;126575;-70
2021/08/19 08:16:04;;;;;;;6.68;3.80;;;;;;;20.34;56.34;100370.78;4902630;28;97904;-70
2021/08/19 08:18:30;;;;;;;4.70;3.50;;;;;;;20.31;56.54;100379.66;4902824;28;97822;-69
2021/08/19 08:20:57;;;;;;;4.88;3.72;;;;;;;20.27;56.34;100373.25;4904785;28;98821;-70
2021/08/19 08:23:24;;;;;;;4.72;3.40;;;;;;;20.26;56.24;100379.88;4900714;28;98334;-70
2021/08/19 08:25:50;;;;;;;3.53;3.22;;;;;;;20.25;56.18;100381.03;4900292;28;99302;-71
2021/08/19 08:28:20;;;;;;;3.97;3.47;;;;;;;20.25;56.20;100381.03;4886494;28;112068;-69
2021/08/19 08:30:46;;;;;;;3.80;3.30;;;;;;;20.27;56.23;100390.47;4904653;28;98335;-70
2021/08/19 08:33:13;;;;;;;4.25;2.83;;;;;;;20.32;56.23;100384.81;4915411;28;98306;-70
2021/08/19 08:35:40;;;;;;;3.25;2.90;;;;;;;20.41;56.26;100392.16;4901557;28;127671;-65
2021/08/19 08:38:08;;;;;;;4.07;3.00;;;;;;;20.48;56.17;100392.44;4901038;28;97995;-64
2021/08/19 08:40:36;;;;;;;4.93;4.43;;;;;;;20.62;56.26;100392.94;4900228;28;97989;-70
2021/08/19 08:43:03;;;;;;;4.32;3.38;;;;;;;20.72;56.23;100391.75;4884915;28;98211;-70
2021/08/19 08:45:33;;;;;;;4.93;3.45;;;;;;;20.79;56.38;100397.47;4916205;28;98073;-64
2021/08/19 08:48:18;;;;;;;4.65;3.95;;;;;;;20.85;56.00;100393.38;4921379;28;98049;-70
2021/08/19 08:50:47;;;;;;;4.50;4.10;;;;;;;20.89;56.04;100398.97;4907050;28;98814;-71
2021/08/19 08:53:14;;;;;;;4.90;4.40;;;;;;;20.94;55.94;100402.28;4901714;28;99308;-70
2021/08/19 08:55:40;;;;;;;4.82;3.97;;;;;;;20.99;56.18;100401.31;4901519;28;97853;-70
2021/08/19 08:58:07;;;;;;;6.03;4.15;;;;;;;21.08;56.12;100402.81;4918421;28;117904;-64
2021/08/19 09:00:34;;;;;;;5.95;4.15;;;;;;;21.15;55.69;100402.25;4917831;28;113306;-64
2021/08/19 09:03:00;;;;;;;5.65;4.55;;;;;;;21.20;55.97;100407.50;4920823;28;108747;-71
2021/08/19 09:05:29;;;;;;;4.97;4.30;;;;;;;21.26;55.65;100402.59;4919348;28;98184;-64
2021/08/19 09:07:59;;;;;;;4.65;4.20;;;;;;;21.24;55.69;100408.41;4920536;28;98153;-70
2021/08/19 09:10:28;;;;;;;4.55;4.10;;;;;;;21.29;55.65;100399.97;4919095;28;116793;-70
2021/08/19 09:12:54;;;;;;;5.65;4.55;;;;;;;21.38;55.63;100402.66;4915017;28;98547;-64
2021/08/19 09:15:23;;;;;;;6.00;4.43;;;;;;;21.30;55.75;100404.34;4901245;28;98066;-64
2021/08/19 09:17:55;;;;;;;4.57;4.18;;;;;;;21.22;55.86;100401.66;4902015;28;100970;-70
2021/08/19 09:20:42;;;;;;;5.07;4.57;;;;;;;21.19;55.48;100408.66;4902827;28;99246;-70
2021/08/19 09:23:15;;;;;;;4.45;3.83;;;;;;;21.17;55.99;100410.91;4901244;28;98210;-70
2021/08/19 09:25:45;;;;;;;6.38;4.18;;;;;;;21.18;56.04;100400.75;4916578;28;119201;-70
2021/08/19 09:28:22;;;;;;;4.72;3.55;;;;;;;21.17;55.91;100401.91;4920814;28;97953;-70
2021/08/19 09:30:54;;;;;;;5.15;3.90;;;;;;;21.22;55.49;100407.97;4920520;28;98058;-70
2021/08/19 09:33:33;;;;;;;3.70;3.22;;;;;;;21.35;55.72;100394.31;4920528;28;97647;-64
2021/08/19 09:36:01;;;;;;;4.07;3.45;;;;;;;21.51;55.26;100404.25;4920206;28;98104;-70
2021/08/19 09:38:44;;;;;;;4.07;3.17;;;;;;;21.70;55.01;100405.63;4924168;28;98222;-64
2021/08/19 09:41:17;;;;;;;3.88;3.17;;;;;;;21.90;54.46;100398.41;4904614;28;98844;-70
2021/08/19 09:43:48;;;;;;;5.45;3.20;;;;;;;22.08;54.05;100394.25;4904641;28;99017;-70
2021/08/19 09:46:38;;;;;;;5.82;3.10;;;;;;;22.40;53.26;100394.41;4905343;28;97979;-64
2021/08/19 09:49:30;;;;;;;3.60;2.97;;;;;;;23.02;52.35;100398.50;4904180;28;112476;-70
2021/08/19 09:52:08;;;;;;;3.53;3.15;;;;;;;23.06;52.07;100393.09;4904416;28;98275;-69
2021/08/19 09:54:41;;;;;;;4.03;2.95;;;;;;;23.16;51.26;100401.63;4906385;28;99291;-71
2021/08/19 09:57:08;;;;;;;3.42;3.13;;;;;;;23.20;51.09;100393.47;4920444;28;98631;-64
2021/08/19 09:59:37;;;;;;;3.22;2.80;;;;;;;23.55;50.20;100387.28;4935610;28;97981;-70
2021/08/19 10:02:09;;;;;;;3.67;3.22;;;;;;;24.31;48.11;100391.34;4943193;28;100201;-64
2021/08/19 10:04:36;;;;;;;3.05;2.83;;;;;;;25.46;46.39;100383.25;4928205;28;112531;-71
2021/08/19 10:07:02;;;;;;;4.35;3.15;;;;;;;26.38;44.38;100388.53;4923561;28;108844;-70
2021/08/19 10:09:29;;;;;;;3.65;3.35;;;;;;;27.58;42.17;100390.91;4922507;28;97924;-71
2021/08/19 10:11:56;;;;;;;3.30;2.95;;;;;;;29.42;39.56;100391.22;4922775;28;117640;-64
2021/08/19 10:14:28;;;;;;;3.78;2.72;;;;;;;28.77;41.22;100390.38;4916703;28;98675;-71
2021/08/19 10:16:55;;;;;;;4.20;3.38;;;;;;;28.54;40.35;100382.38;4904318;28;98390;-71
2021/08/19 10:19:34;;;;;;;3.40;3.10;;;;;;;28.69;40.71;100386.00;4905722;28;97865;-64
2021/08/19 10:22:15;;;;;;;3.40;3.10;;;;;;;27.78;42.04;100372.09;4901840;28;98508;-71
2021/08/19 10:24:43;;;;;;;2.60;2.40;;;;;;;26.99;43.21;100375.38;4885955;28;99259;-71
2021/08/19 10:27:19;;;;;;;3.75;3.42;;;;;;;26.32;43.34;100367.91;4922687;28;97967;-71
2021/08/19 10:29:59;;;;;;;3.90;3.42;;;;;;;25.59;44.78;100372.84;4919494;28;97941;-71
2021/08/19 10:32:40;;;;;;;4.75;3.80;;;;;;;25.04;45.42;100373.09;4921880;28;98904;-63
2021/08/19 10:35:10;;;;;;;3.80;3.20;;;;;;;24.42;46.71;100378.63;4921398;28;120980;-71
2021/08/19 10:37:45;;;;;;;4.07;3.35;;;;;;;23.95;47.80;100376.81;4924006;28;97987;-71
2021/08/19 10:40:31;;;;;;;4.00;3.60;;;;;;;23.48;48.45;100374.94;4923638;28;97811;-61
2021/08/19 10:43:00;;;;;;;3.97;3.42;;;;;;;23.15;49.17;100375.31;4922518;28;99140;-61
2021/08/19 10:45:29;;;;;;;4.80;3.03;;;;;;;22.83;49.42;100374.41;4923390;28;97990;-70
2021/08/19 10:48:22;;;;;;;4.53;2.80;;;;;;;22.58;50.50;100372.97;4922484;28;97794;-70
2021/08/19 10:50:49;;;;;;;4.10;2.90;;;;;;;22.28;50.90;100374.13;4921466;28;97673;-70
2021/08/19 10:53:22;;;;;;;3.47;2.67;;;;;;;22.05;51.74;100375.75;4907060;28;98096;-70
2021/08/19 10:55:54;;;;;;;4.05;3.20;;;;;;;21.87;52.39;100371.66;4902224;28;98133;-70
2021/08/19 10:58:28;;;;;;;3.70;2.97;;;;;;;21.71;52.58;100372.38;4886711;28;97889;-70
2021/08/19 11:00:58;;;;;;;3.65;3.30;;;;;;;21.77;52.98;100375.66;4902629;28;97979;-63
2021/08/19 11:03:37;;;;;;;3.70;2.65;;;;;;;21.92;52.88;100382.38;4900830;28;98115;-62
2021/08/19 11:06:04;;;;;;;2.85;2.60;;;;;;;22.09;52.69;100381.34;4914389;28;98418;-63
2021/08/19 11:08:57;;;;;;;3.58;3.15;;;;;;;22.86;50.83;100383.91;4922274;28;97833;-63
2021/08/19 11:11:33;;;;;;;3.88;2.50;;;;;;;23.98;49.09;100372.56;4920511;28;98102;-63
2021/08/19 11:14:08;;;;;;;4.00;2.55;;;;;;;24.68;48.00;100380.72;4922606;28;99180;-69
2021/08/19 11:16:35;;;;;;;3.08;2.38;;;;;;;26.60;44.14;100373.00;4922178;28;99059;-70
2021/08/19 11:19:22;;;;;;;4.30;2.90;;;;;;;27.26;43.59;100381.59;4921878;28;98122;-63
2021/08/19 11:21:52;;;;;;;3.45;2.90;;;;;;;26.74;43.72;100369.63;4923134;28;99567;-70
2021/08/19 11:24:19;;;;;;;5.13;2.60;;;;;;;26.76;43.80;100379.09;4921368;28;98306;-70
2021/08/19 11:27:03;;;;;;;3.58;2.53;;;;;;;26.59;44.57;100382.47;4923282;28;98743;-63